Time;durP1;ratioP1;P1;durP2;ratioP2;P2;SDS_P1;SDS_P2;PMS_P1;PMS_P2;Temp;Humidity;BMP_temperature;BMP_pressure;BME280_temperature;BME280_humidity;BME280_pressure;Samples;Min_cycle;Max_cycle;Signal;HPM_P1;HPM_P2
2023/12/09 00:00:18;;;;;;;;;8.67;6.00;;;;;10.43;100.00;100556.03;4868277;29;47186;-86
2023/12/09 00:02:43;;;;;;;;;8.00;7.00;;;;;10.55;100.00;100548.19;4886078;29;45410;-85
2023/12/09 00:05:09;;;;;;;;;11.67;6.00;;;;;10.51;100.00;100549.03;4868928;29;45399;-86
2023/12/09 00:07:34;;;;;;;;;9.33;7.33;;;;;10.48;100.00;100541.03;4884320;29;45451;-85
2023/12/09 00:10:00;;;;;;;;;8.00;5.00;;;;;10.48;100.00;100542.78;4885575;29;45451;-86
2023/12/09 00:12:25;;;;;;;;;9.67;9.67;;;;;10.50;100.00;100549.94;4868616;29;44816;-86
2023/12/09 00:14:50;;;;;;;;;4.67;4.33;;;;;10.45;100.00;100532.16;4869089;29;45285;-86
2023/12/09 00:17:16;;;;;;;;;6.00;6.00;;;;;10.37;100.00;100529.38;4867890;29;52316;-86
2023/12/09 00:19:41;;;;;;;;;7.67;6.33;;;;;10.44;100.00;100541.84;4884293;29;45373;-86
2023/12/09 00:22:06;;;;;;;;;6.00;6.00;;;;;10.40;100.00;100542.69;4885474;29;45400;-86
2023/12/09 00:24:32;;;;;;;;;8.67;6.33;;;;;10.30;100.00;100525.78;4868730;29;44964;-86
2023/12/09 00:26:57;;;;;;;;;7.33;6.00;;;;;10.28;100.00;100523.91;4870172;29;44925;-86
2023/12/09 00:29:22;;;;;;;;;8.67;6.00;;;;;10.27;100.00;100532.78;4868464;29;47154;-85
2023/12/09 00:31:49;;;;;;;;;8.00;6.00;;;;;10.36;100.00;100543.53;4867763;29;45575;-85
2023/12/09 00:34:15;;;;;;;;;8.33;8.33;;;;;10.23;100.00;100547.78;4868376;29;45492;-85
2023/12/09 00:36:40;;;;;;;;;9.67;7.00;;;;;10.25;100.00;100547.81;4884908;29;45424;-85
2023/12/09 00:39:07;;;;;;;;;7.33;6.33;;;;;10.38;100.00;100548.03;4884959;29;45776;-86
2023/12/09 00:41:34;;;;;;;;;8.00;6.67;;;;;10.19;100.00;100543.31;4867846;29;45585;-86
2023/12/09 00:44:00;;;;;;;;;8.33;6.33;;;;;10.20;100.00;100546.00;4869570;29;45496;-87
2023/12/09 00:46:25;;;;;;;;;6.50;6.00;;;;;10.20;100.00;100542.47;4868264;29;45371;-86
2023/12/09 00:48:50;;;;;;;;;13.67;6.67;;;;;10.24;100.00;100548.69;4868191;29;48330;-86
2023/12/09 00:51:16;;;;;;;;;7.00;7.00;;;;;10.24;100.00;100552.25;4870090;28;45488;-85
2023/12/09 00:53:41;;;;;;;;;9.67;8.00;;;;;10.24;100.00;100552.25;4870435;29;45344;-85
2023/12/09 00:56:08;;;;;;;;;6.33;6.00;;;;;10.22;100.00;100540.72;4885876;29;45750;-86
2023/12/09 00:58:33;;;;;;;;;6.67;6.67;;;;;10.20;100.00;100546.00;4868734;29;47180;-87
2023/12/09 01:00:58;;;;;;;;;7.67;6.67;;;;;10.23;100.00;100553.09;4869870;29;45422;-86
2023/12/09 01:03:24;;;;;;;;;9.00;8.00;;;;;10.21;100.00;100545.09;4869244;29;45787;-86
2023/12/09 01:05:49;;;;;;;;;11.33;10.33;;;;;10.21;100.00;100541.56;4868677;29;45525;-86
2023/12/09 01:08:15;;;;;;;;;10.00;8.67;;;;;10.27;100.00;100538.97;4869637;29;47243;-87
2023/12/09 01:10:40;;;;;;;;;7.67;6.67;;;;;10.20;100.00;100532.72;4868311;28;45476;-87
2023/12/09 01:13:06;;;;;;;;;5.33;4.67;;;;;10.26;100.00;100534.56;4883031;29;45528;-87
2023/12/09 01:15:31;;;;;;;;;6.33;6.33;;;;;10.28;100.00;100542.53;4883680;28;45489;-87
2023/12/09 01:17:57;;;;;;;;;6.33;5.33;;;;;10.21;100.00;100533.59;4866535;29;47083;-87
2023/12/09 01:20:24;;;;;;;;;5.33;4.00;;;;;10.23;100.00;100544.25;4866551;29;45555;-86
2023/12/09 01:22:49;;;;;;;;;4.00;4.00;;;;;10.20;100.00;100538.03;4868385;29;45356;-86
2023/12/09 01:25:15;;;;;;;;;6.33;6.33;;;;;10.17;100.00;100532.66;4868039;29;45400;-87
2023/12/09 01:27:40;;;;;;;;;7.33;7.33;;;;;10.13;100.00;100529.94;4869038;29;47036;-87
2023/12/09 01:30:06;;;;;;;;;5.33;5.33;;;;;10.23;100.00;100536.28;4869485;29;45784;-87
2023/12/09 01:32:31;;;;;;;;;10.00;7.33;;;;;10.17;100.00;100527.34;4885462;29;45403;-87
2023/12/09 01:34:57;;;;;;;;;8.33;8.00;;;;;10.16;100.00;100533.56;4883650;29;45421;-87
2023/12/09 01:37:25;;;;;;;;;7.00;7.00;;;;;10.17;100.00;100527.34;4882485;29;45674;-86
2023/12/09 01:39:50;;;;;;;;;5.33;5.33;;;;;10.12;100.00;100521.09;4882212;29;45490;-86
2023/12/09 01:42:15;;;;;;;;;8.00;8.00;;;;;10.10;100.00;100520.19;4866912;29;45731;-86
2023/12/09 01:44:42;;;;;;;;;7.33;7.00;;;;;10.16;100.00;100516.69;4883436;29;45510;-86
2023/12/09 01:47:08;;;;;;;;;11.33;8.00;;;;;10.04;100.00;100527.16;4885061;29;45459;-86
2023/12/09 01:49:34;;;;;;;;;10.67;7.00;;;;;10.00;100.00;100511.19;4882632;29;45376;-87
2023/12/09 01:52:01;;;;;;;;;8.00;6.00;;;;;10.03;100.00;100520.97;4869031;29;45313;-87
2023/12/09 01:54:27;;;;;;;;;7.67;7.00;;;;;10.06;100.00;100523.69;4886789;28;45450;-86
2023/12/09 01:56:54;;;;;;;;;9.00;7.00;;;;;10.11;100.00;100516.63;4869548;29;48663;-86
2023/12/09 01:59:21;;;;;;;;;7.33;7.33;;;;;10.13;100.00;100506.03;4869744;29;45965;-86
2023/12/09 02:01:47;;;;;;;;;8.67;7.33;;;;;10.15;100.00;100509.59;4867856;28;45574;-84
2023/12/09 02:04:13;;;;;;;;;11.33;8.00;;;;;10.14;100.00;100492.78;4867347;29;45385;-83
2023/12/09 02:06:40;;;;;;;;;7.00;7.00;;;;;10.31;100.00;100502.75;4883420;29;46823;-84
2023/12/09 02:12:58;;;;;;;;;12.33;8.00;;;;;10.48;100.00;100474.53;4888514;29;45780;-83
2023/12/09 02:15:36;;;;;;;;;10.33;8.67;;;;;10.31;100.00;100469.06;4871672;29;45500;-83
2023/12/09 02:18:05;;;;;;;;;7.33;6.67;;;;;10.40;100.00;100468.25;4886674;29;47273;-83
2023/12/09 02:20:32;;;;;;;;;9.33;8.33;;;;;10.29;100.00;100462.81;4856403;29;46322;-83
2023/12/09 02:23:11;;;;;;;;;13.00;8.33;;;;;10.45;100.00;100461.25;4886808;29;45855;-83
2023/12/09 02:25:37;;;;;;;;;8.33;7.67;;;;;10.36;100.00;100450.50;4887398;29;45476;-83
2023/12/09 02:28:17;;;;;;;;;8.00;6.67;;;;;10.47;100.00;100448.84;4870088;29;47857;-84
2023/12/09 02:31:13;;;;;;;;;7.67;6.00;;;;;10.54;100.00;100424.13;4885873;29;45372;-83
2023/12/09 02:33:43;;;;;;;;;11.67;8.00;;;;;10.43;100.00;100425.78;4886540;29;45433;-84
2023/12/09 02:36:10;;;;;;;;;12.00;7.00;;;;;10.43;100.00;100423.13;4886024;29;45493;-83
2023/12/09 02:38:37;;;;;;;;;8.67;8.67;;;;;10.46;100.00;100420.47;4868643;29;47729;-83
2023/12/09 02:41:05;;;;;;;;;8.00;7.00;;;;;10.43;100.00;100425.78;4886146;29;45499;-83
2023/12/09 02:43:31;;;;;;;;;8.00;8.00;;;;;10.44;100.00;100406.28;4886270;29;45445;-83
2023/12/09 02:45:56;;;;;;;;;12.33;8.67;;;;;10.53;100.00;100427.63;4887477;29;45359;-82
2023/12/09 02:48:25;;;;;;;;;7.67;7.00;;;;;10.67;100.00;100422.44;4868427;29;46995;-82
2023/12/09 02:50:50;;;;;;;;;13.00;10.67;;;;;10.51;100.00;100410.78;4868576;29;45444;-83
2023/12/09 02:53:15;;;;;;;;;8.67;8.00;;;;;10.50;100.00;100409.03;4885657;29;45757;-83
2023/12/09 02:55:41;;;;;;;;;12.33;9.00;;;;;10.52;100.00;100401.03;4886633;29;45510;-82
2023/12/09 02:58:06;;;;;;;;;8.67;7.33;;;;;10.57;100.00;100409.94;4886678;29;45384;-82
2023/12/09 03:00:32;;;;;;;;;13.00;12.00;;;;;10.56;100.00;100392.19;4887385;29;45546;-84
2023/12/09 03:02:57;;;;;;;;;13.00;9.00;;;;;10.50;100.00;100377.13;4886910;29;45733;-84
2023/12/09 03:05:22;;;;;;;;;12.00;8.67;;;;;10.55;100.00;100393.97;4887168;29;44990;-84
2023/12/09 03:07:55;;;;;;;;;8.00;8.00;;;;;10.52;100.00;100378.00;4869812;28;48023;-84
2023/12/09 03:10:20;;;;;;;;;10.33;9.00;;;;;10.53;100.00;100376.25;4868119;29;45410;-84
2023/12/09 03:12:45;;;;;;;;;11.67;8.00;;;;;10.54;100.00;100370.03;4886330;29;45457;-84
2023/12/09 03:15:11;;;;;;;;;13.67;9.33;;;;;10.51;100.00;100360.25;4870140;28;45610;-84
2023/12/09 03:17:38;;;;;;;;;11.67;10.00;;;;;10.54;100.00;100352.31;4870433;29;47297;-84
2023/12/09 03:20:08;;;;;;;;;12.67;10.33;;;;;10.65;100.00;100354.19;4870283;29;45758;-84
2023/12/09 03:22:34;;;;;;;;;12.00;12.00;;;;;10.57;100.00;100341.69;4869746;29;45482;-83
2023/12/09 03:24:59;;;;;;;;;12.00;8.00;;;;;10.64;100.00;100341.75;4883980;29;45441;-84
2023/12/09 03:27:24;;;;;;;;;9.33;8.67;;;;;10.60;100.00;100331.09;4885168;29;45425;-84
2023/12/09 03:29:50;;;;;;;;;8.00;8.00;;;;;10.61;100.00;100330.19;4887164;29;45499;-84
2023/12/09 03:32:15;;;;;;;;;9.00;9.00;;;;;11.45;100.00;100325.34;4886151;29;45827;-84
2023/12/09 03:34:43;;;;;;;;;10.00;7.33;;;;;11.87;100.00;100319.25;4868766;29;45340;-84
2023/12/09 03:37:08;;;;;;;;;12.00;8.67;;;;;11.91;99.35;100322.84;4870152;29;47230;-84
2023/12/09 03:39:34;;;;;;;;;7.00;7.00;;;;;12.02;97.14;100326.44;4886489;29;45448;-84
2023/12/09 03:41:59;;;;;;;;;14.00;14.00;;;;;11.08;100.00;100333.16;4868606;29;45891;-83
2023/12/09 03:44:24;;;;;;;;;10.00;7.00;;;;;10.80;100.00;100306.38;4871660;29;45382;-83
2023/12/09 03:46:50;;;;;;;;;7.67;6.33;;;;;10.77;100.00;100298.41;4886154;29;45416;-83
2023/12/09 03:49:15;;;;;;;;;11.00;9.00;;;;;10.67;100.00;100293.91;4885861;29;45564;-83
2023/12/09 03:51:40;;;;;;;;;12.00;12.00;;;;;10.55;100.00;100286.72;4886255;29;45282;-83
2023/12/09 03:54:06;;;;;;;;;10.33;8.00;;;;;10.64;100.00;100293.88;4887391;29;45571;-83
2023/12/09 03:56:31;;;;;;;;;11.33;9.00;;;;;10.56;100.00;100291.16;4885571;29;45421;-83
2023/12/09 03:58:56;;;;;;;;;11.00;10.00;;;;;10.50;100.00;100281.41;4885521;29;45463;-83
2023/12/09 04:01:24;;;;;;;;;10.67;8.33;;;;;10.52;100.00;100284.97;4868223;29;45426;-83
2023/12/09 04:03:50;;;;;;;;;9.33;8.00;;;;;10.59;100.00;100289.41;4883582;29;44930;-83
2023/12/09 04:06:15;;;;;;;;;13.67;12.67;;;;;10.55;100.00;100263.69;4885368;29;46191;-83
2023/12/09 04:08:42;;;;;;;;;9.00;9.00;;;;;10.68;100.00;100261.09;4868441;29;45770;-83
2023/12/09 04:11:07;;;;;;;;;8.67;7.33;;;;;10.61;100.00;100253.09;4886260;29;45812;-83
2023/12/09 04:13:32;;;;;;;;;8.00;7.00;;;;;10.69;100.00;100246.94;4869054;29;44885;-83
2023/12/09 04:15:59;;;;;;;;;11.33;6.33;;;;;10.65;100.00;100251.34;4869206;29;47641;-84
2023/12/09 04:18:24;;;;;;;;;7.00;5.33;;;;;10.60;100.00;100239.78;4869346;29;45712;-84
2023/12/09 04:20:50;;;;;;;;;7.00;7.00;;;;;10.74;100.00;100248.72;4869931;29;45343;-84
2023/12/09 04:23:15;;;;;;;;;8.67;7.00;;;;;10.69;100.00;100234.53;4886504;29;45006;-83
2023/12/09 04:25:41;;;;;;;;;6.00;6.00;;;;;10.75;100.00;100239.88;4866911;29;47377;-83
2023/12/09 04:28:06;;;;;;;;;6.00;6.00;;;;;10.80;100.00;100243.44;4868713;29;45763;-83
2023/12/09 04:30:31;;;;;;;;;9.00;4.67;;;;;10.80;100.00;100247.88;4885110;29;45381;-83
2023/12/09 04:32:57;;;;;;;;;6.33;6.33;;;;;10.82;100.00;100246.97;4865905;29;45605;-83
2023/12/09 04:35:22;;;;;;;;;10.00;8.00;;;;;10.85;100.00;100239.94;4869076;29;47913;-83
2023/12/09 04:37:47;;;;;;;;;7.00;6.00;;;;;10.85;100.00;100231.94;4867926;29;45490;-83
2023/12/09 04:40:13;;;;;;;;;7.00;6.00;;;;;10.84;100.00;100227.50;4868543;29;45393;-83
2023/12/09 04:42:39;;;;;;;;;11.33;8.00;;;;;10.96;100.00;100225.78;4868504;29;45672;-83
2023/12/09 04:45:06;;;;;;;;;5.33;5.33;;;;;11.01;100.00;100216.06;4884708;29;45489;-83
2023/12/09 04:47:32;;;;;;;;;4.00;3.33;;;;;11.01;100.00;100208.06;4867687;29;45425;-82
2023/12/09 04:49:58;;;;;;;;;6.00;4.00;;;;;10.97;100.00;100192.09;4867112;29;45410;-83
2023/12/09 04:52:23;;;;;;;;;11.00;8.67;;;;;11.01;100.00;100192.09;4882697;29;45474;-82
2023/12/09 04:54:49;;;;;;;;;6.00;6.00;;;;;11.13;100.00;100201.91;4884029;29;45757;-83
2023/12/09 04:57:14;;;;;;;;;6.33;6.33;;;;;11.10;100.00;100199.22;4867686;28;45352;-83
2023/12/09 04:59:39;;;;;;;;;4.67;4.67;;;;;11.10;100.00;100206.31;4884672;29;45409;-83
2023/12/09 05:02:05;;;;;;;;;8.67;7.33;;;;;11.09;100.00;100191.22;4868449;29;45412;-83
2023/12/09 05:04:30;;;;;;;;;6.00;6.00;;;;;11.14;100.00;100200.13;4867005;29;48369;-84
2023/12/09 05:06:55;;;;;;;;;4.67;4.67;;;;;11.17;100.00;100200.16;4883526;29;45292;-84
2023/12/09 05:09:24;;;;;;;;;4.00;4.00;;;;;11.15;100.00;100188.56;4884162;29;45444;-85
2023/12/09 05:11:49;;;;;;;;;8.33;5.33;;;;;11.13;100.00;100182.34;4868737;29;46040;-83
2023/12/09 05:14:21;;;;;;;;;2.00;2.00;;;;;11.30;100.00;100175.31;4867757;29;47334;-83
2023/12/09 05:16:47;;;;;;;;;6.25;6.25;;;;;11.11;100.00;100165.50;4867363;29;46086;-83
2023/12/09 05:19:12;;;;;;;;;6.67;4.00;;;;;11.17;100.00;100171.75;4884023;29;45460;-83
2023/12/09 05:21:37;;;;;;;;;7.33;4.00;;;;;11.16;100.00;100155.78;4884121;29;45367;-83
2023/12/09 05:24:04;;;;;;;;;6.00;6.00;;;;;11.28;100.00;100170.88;4865944;29;47191;-84
2023/12/09 05:26:30;;;;;;;;;4.67;4.67;;;;;11.21;100.00;100170.00;4866420;29;45279;-83
2023/12/09 05:28:56;;;;;;;;;5.33;3.67;;;;;11.29;100.00;100159.34;4881857;29;45555;-83
2023/12/09 05:31:22;;;;;;;;;2.00;2.00;;;;;11.25;100.00;100146.91;4866048;29;45492;-83
2023/12/09 05:33:48;;;;;;;;;4.00;3.00;;;;;11.21;100.00;100125.63;4882088;29;48112;-83
2023/12/09 05:36:13;;;;;;;;;5.67;5.67;;;;;11.14;100.00;100120.28;4883009;29;45412;-83
2023/12/09 05:38:41;;;;;;;;;1.00;1.00;;;;;11.17;100.00;100130.94;4883812;29;45528;-83
2023/12/09 05:44:28;;;;;;;;;2.00;2.00;;;;;11.16;100.00;100122.06;4886284;28;45695;-83
2023/12/09 05:46:53;;;;;;;;;7.00;4.00;;;;;11.17;100.00;100104.34;4887370;29;45460;-83
2023/12/09 05:49:19;;;;;;;;;4.50;2.75;;;;;11.11;100.00;100096.31;4887094;28;45428;-84
2023/12/09 05:51:44;;;;;;;;;8.00;4.00;;;;;11.11;100.00;100098.97;4889325;29;45361;-83
2023/12/09 05:57:32;;;;;;;;;2.33;2.33;;;;;11.09;100.00;100080.38;4888069;28;45475;-84
2023/12/09 05:59:57;;;;;;;;;3.00;3.00;;;;;11.05;100.00;100064.38;4887224;29;45477;-83
2023/12/09 06:02:22;;;;;;;;;3.00;2.00;;;;;11.01;100.00;100061.72;4887227;29;45537;-84
2023/12/09 06:04:48;;;;;;;;;4.00;3.00;;;;;11.05;100.00;100064.38;4885869;29;45470;-83
2023/12/09 06:07:13;;;;;;;;;3.33;3.33;;;;;11.04;100.00;100057.28;4885917;29;45409;-82
2023/12/09 06:09:38;;;;;;;;;2.00;2.00;;;;;11.03;100.00;100053.75;4885802;29;54893;-84
2023/12/09 06:12:04;;;;;;;;;6.00;3.00;;;;;10.96;100.00;100047.50;4886819;29;45449;-83
2023/12/09 06:14:29;;;;;;;;;1.00;1.00;;;;;10.98;100.00;100051.06;4870273;29;48150;-83
2023/12/09 06:16:55;;;;;;;;;2.00;2.00;;;;;11.86;100.00;100032.38;4887948;29;45324;-82
2023/12/09 06:19:20;;;;;;;;;3.00;1.00;;;;;12.15;100.00;100034.09;4872046;29;45395;-83
2023/12/09 06:21:46;;;;;;;;;2.00;2.00;;;;;12.28;100.00;100021.59;4871540;28;45394;-84
2023/12/09 06:24:13;;;;;;;;;2.00;2.00;;;;;11.28;100.00;100006.72;4887018;29;47761;-83
2023/12/09 06:26:43;;;;;;;;;2.00;2.00;;;;;12.28;100.00;100000.25;4888390;29;45390;-83
2023/12/09 06:29:08;;;;;;;;;2.00;1.33;;;;;12.31;100.00;99997.59;4887599;29;45419;-83
2023/12/09 06:31:34;;;;;;;;;3.33;3.33;;;;;12.38;100.00;99985.97;4869336;29;45325;-83
2023/12/09 06:33:59;;;;;;;;;4.00;2.00;;;;;12.38;100.00;99973.56;4870290;28;47451;-84
2023/12/09 06:36:24;;;;;;;;;1.00;1.00;;;;;12.45;100.00;99976.19;4886099;29;45318;-83
2023/12/09 06:38:50;;;;;;;;;3.33;1.33;;;;;12.52;100.00;99976.16;4886022;29;45364;-82
2023/12/09 06:41:15;;;;;;;;;1.33;1.33;;;;;12.57;100.00;99962.78;4866482;29;45289;-84
2023/12/09 06:43:41;;;;;;;;;3.00;3.00;;;;;12.62;99.74;99947.59;4883130;29;45559;-83
2023/12/09 06:46:06;;;;;;;;;2.25;1.25;;;;;12.57;99.77;99954.78;4867895;29;45465;-84
2023/12/09 06:48:32;;;;;;;;;2.33;1.33;;;;;12.49;100.00;99933.47;4885722;29;45442;-83
2023/12/09 06:50:57;;;;;;;;;2.33;2.33;;;;;12.50;100.00;99967.28;4869629;29;45355;-83
2023/12/09 06:53:22;;;;;;;;;3.00;3.00;;;;;12.50;100.00;99935.28;4886438;29;45416;-83
2023/12/09 06:55:48;;;;;;;;;2.50;1.75;;;;;12.49;100.00;99944.16;4870854;29;45764;-84
2023/12/09 06:58:14;;;;;;;;;4.67;2.00;;;;;12.60;100.00;99944.97;4888093;29;45704;-83
2023/12/09 07:00:40;;;;;;;;;3.00;2.00;;;;;12.60;100.00;99936.06;4871603;29;45690;-84
2023/12/09 07:03:05;;;;;;;;;6.00;3.00;;;;;12.55;100.00;99916.56;4870169;29;48103;-83
2023/12/09 07:05:32;;;;;;;;;1.67;1.67;;;;;12.56;100.00;99929.91;4869282;29;45455;-83
2023/12/09 07:07:58;;;;;;;;;2.00;2.00;;;;;12.43;100.00;99914.84;4884652;28;45608;-83
2023/12/09 07:10:23;;;;;;;;;1.00;1.00;;;;;12.50;100.00;99899.69;4885603;29;45403;-83
2023/12/09 07:12:48;;;;;;;;;4.00;1.33;;;;;12.44;100.00;99881.06;4867085;29;47160;-84
2023/12/09 07:15:15;;;;;;;;;2.00;1.00;;;;;12.37;100.00;99893.56;4883696;29;45388;-83
2023/12/09 07:17:40;;;;;;;;;3.00;3.00;;;;;12.26;100.00;99877.66;4867521;29;45407;-83
2023/12/09 07:20:06;;;;;;;;;1.00;1.00;;;;;12.37;100.00;99875.78;4885210;29;45361;-83
2023/12/09 07:22:32;;;;;;;;;1.67;1.67;;;;;12.37;100.00;99866.91;4883890;29;46784;-83
2023/12/09 07:24:58;;;;;;;;;2.00;2.00;;;;;12.35;100.00;99866.91;4867173;29;45415;-83
2023/12/09 07:27:30;;;;;;;;;3.00;1.67;;;;;12.52;100.00;99860.56;4868149;29;45405;-83
2023/12/09 07:29:55;;;;;;;;;2.33;1.00;;;;;12.25;100.00;99872.31;4885485;29;45369;-82
2023/12/09 07:32:21;;;;;;;;;1.67;1.67;;;;;12.23;100.00;99877.66;4885945;29;50221;-84
2023/12/09 07:34:51;;;;;;;;;1.00;1.00;;;;;12.53;100.00;99881.00;4879815;29;45504;-83
2023/12/09 07:37:16;;;;;;;;;1.00;1.00;;;;;12.23;100.00;99863.47;4867539;29;45457;-84
2023/12/09 07:39:42;;;;;;;;;3.67;3.00;;;;;12.17;100.00;99859.91;4867293;29;45493;-84
2023/12/09 07:42:07;;;;;;;;;2.67;2.67;;;;;12.19;100.00;99852.81;4868301;29;47035;-84
2023/12/09 07:44:33;;;;;;;;;3.33;3.00;;;;;12.17;100.00;99841.25;4886067;29;45434;-83
2023/12/09 07:46:58;;;;;;;;;2.33;2.00;;;;;12.18;100.00;99827.06;4885339;29;44882;-84
2023/12/09 07:49:24;;;;;;;;;1.67;1.33;;;;;12.12;100.00;99826.19;4883829;29;45392;-84
2023/12/09 07:51:49;;;;;;;;;2.00;2.00;;;;;12.15;100.00;99819.06;4884374;29;45756;-84
2023/12/09 07:54:14;;;;;;;;;1.33;1.00;;;;;12.08;100.00;99798.69;4869046;29;45692;-84
2023/12/09 07:56:40;;;;;;;;;1.00;1.00;;;;;12.13;100.00;99796.88;4869552;29;45445;-84
2023/12/09 07:59:07;;;;;;;;;1.00;1.00;;;;;12.17;100.00;99793.28;4885678;29;45550;-84
2023/12/09 08:01:33;;;;;;;;;2.33;2.00;;;;;12.05;100.00;99766.72;4868417;29;47369;-84
2023/12/09 08:03:59;;;;;;;;;2.00;2.00;;;;;12.13;100.00;99754.22;4868530;29;45453;-83
2023/12/09 08:06:25;;;;;;;;;3.00;3.00;;;;;12.50;100.00;99745.91;4868419;29;45399;-84
2023/12/09 08:08:51;;;;;;;;;5.33;3.33;;;;;12.68;100.00;99726.16;4884613;29;45415;-83
2023/12/09 08:11:18;;;;;;;;;2.67;2.67;;;;;12.41;100.00;99711.31;4866570;29;46082;-83
2023/12/09 08:13:44;;;;;;;;;3.00;3.00;;;;;12.17;100.00;99700.00;4884232;29;45378;-84
2023/12/09 08:16:10;;;;;;;;;3.33;3.33;;;;;12.09;100.00;99704.50;4886019;29;45364;-84
2023/12/09 08:18:35;;;;;;;;;2.00;2.00;;;;;12.06;100.00;99709.88;4868039;29;45455;-84
2023/12/09 08:21:01;;;;;;;;;1.67;1.00;;;;;12.09;100.00;99703.63;4868446;29;47286;-84
2023/12/09 08:23:27;;;;;;;;;1.00;1.00;;;;;12.04;100.00;99690.34;4884528;29;45347;-84
2023/12/09 08:25:53;;;;;;;;;1.00;1.00;;;;;12.03;100.00;99664.59;4868212;29;45611;-84
2023/12/09 08:28:19;;;;;;;;;1.33;1.33;;;;;12.06;100.00;99663.66;4886428;29;45340;-83
2023/12/09 08:30:46;;;;;;;;;7.00;6.00;;;;;12.01;100.00;99643.28;4869783;29;47148;-83
2023/12/09 08:33:13;;;;;;;;;6.00;4.00;;;;;12.00;100.00;99669.97;4868139;29;45959;-84
2023/12/09 08:35:38;;;;;;;;;2.67;2.67;;;;;11.97;100.00;99643.34;4867688;29;45962;-83
2023/12/09 08:38:04;;;;;;;;;1.75;0.50;;;;;12.07;100.00;99633.47;4886018;29;45392;-83
2023/12/09 08:40:29;;;;;;;;;4.33;1.67;;;;;12.07;100.00;99599.69;4884601;29;55607;-83
2023/12/09 08:42:54;;;;;;;;;3.33;1.33;;;;;12.07;100.00;99614.81;4867700;29;45326;-83
2023/12/09 08:45:21;;;;;;;;;1.33;1.00;;;;;12.29;100.00;99611.03;4884725;29;44785;-83
2023/12/09 08:47:46;;;;;;;;;2.67;1.00;;;;;12.05;100.00;99563.31;4884025;29;45459;-82
2023/12/09 08:50:13;;;;;;;;;1.67;1.00;;;;;12.12;100.00;99549.91;4866540;29;47259;-83
2023/12/09 08:52:39;;;;;;;;;1.50;0.00;;;;;11.94;100.00;99547.47;4884413;29;45694;-83
2023/12/09 08:55:05;;;;;;;;;1.00;1.00;;;;;11.94;100.00;99515.50;4869481;29;45464;-84
2023/12/09 08:57:31;;;;;;;;;0.00;0.00;;;;;12.12;100.00;99531.25;4884767;29;45436;-85
2023/12/09 08:59:57;;;;;;;;;0.00;0.00;;;;;11.93;100.00;99516.38;4884276;29;45446;-84
2023/12/09 09:02:23;;;;;;;;;1.25;1.25;;;;;11.79;100.00;99461.41;4885005;29;45523;-84
2023/12/09 09:04:49;;;;;;;;;1.00;1.00;;;;;11.87;100.00;99498.63;4869344;29;45800;-84
2023/12/09 09:07:21;;;;;;;;;0.75;0.75;;;;;12.12;100.00;99522.34;4885922;29;45434;-83
2023/12/09 09:09:46;;;;;;;;;0.00;0.00;;;;;12.23;100.00;99492.94;4886193;29;45397;-84
2023/12/09 09:12:11;;;;;;;;;0.75;0.75;;;;;12.21;100.00;99477.81;4868771;29;45767;-84
2023/12/09 09:14:37;;;;;;;;;0.75;0.75;;;;;12.35;100.00;99496.31;4868483;29;45392;-84
2023/12/09 09:17:03;;;;;;;;;0.00;0.00;;;;;12.38;100.00;99476.72;4867887;29;45365;-84
2023/12/09 09:19:29;;;;;;;;;2.00;1.00;;;;;12.35;100.00;99461.66;4868033;28;47624;-84
2023/12/09 09:21:55;;;;;;;;;0.00;0.00;;;;;12.33;100.00;99479.44;4868154;29;45569;-84
2023/12/09 09:24:22;;;;;;;;;0.00;0.00;;;;;12.46;100.00;99479.28;4884487;29;45522;-84
2023/12/09 09:26:47;;;;;;;;;0.75;0.75;;;;;12.40;100.00;99483.81;4865230;29;45760;-84
2023/12/09 09:29:12;;;;;;;;;0.00;0.00;;;;;12.43;100.00;99474.88;4864030;29;47079;-84
2023/12/09 09:31:38;;;;;;;;;0.00;0.00;;;;;12.50;100.00;99476.56;4882390;29;44797;-83
2023/12/09 09:34:03;;;;;;;;;0.00;0.00;;;;;12.51;100.00;99464.97;4880451;29;45445;-84
2023/12/09 09:36:29;;;;;;;;;0.00;0.00;;;;;12.55;100.00;99461.38;4883874;29;45436;-84
2023/12/09 09:38:54;;;;;;;;;0.00;0.00;;;;;12.48;100.00;99481.03;4866751;29;48085;-84
2023/12/09 09:41:32;;;;;;;;;0.00;0.00;;;;;12.64;100.00;99457.66;4867175;28;45012;-84
2023/12/09 09:44:04;;;;;;;;;0.00;0.00;;;;;12.52;100.00;99456.09;4867945;29;45557;-84
2023/12/09 09:46:31;;;;;;;;;1.00;1.00;;;;;12.64;100.00;99447.00;4867452;29;45544;-84
2023/12/09 09:48:56;;;;;;;;;4.00;4.00;;;;;12.58;100.00;99437.34;4883682;29;46206;-85
2023/12/09 09:51:26;;;;;;;;;0.50;0.50;;;;;12.56;100.00;99422.22;4867271;29;45375;-84
2023/12/09 09:54:19;;;;;;;;;0.00;0.00;;;;;12.89;100.00;99425.31;4882875;29;45508;-83
2023/12/09 09:56:45;;;;;;;;;1.00;0.00;;;;;12.66;100.00;99457.66;4875778;29;45290;-83
2023/12/09 09:59:11;;;;;;;;;0.00;0.00;;;;;12.84;100.00;99443.16;4883721;29;45531;-83
2023/12/09 10:01:37;;;;;;;;;0.00;0.00;;;;;12.67;100.00;99398.09;4884589;29;44820;-83
2023/12/09 10:04:03;;;;;;;;;0.00;0.00;;;;;12.70;100.00;99376.69;4883586;29;45475;-83
2023/12/09 10:06:29;;;;;;;;;0.00;0.00;;;;;12.72;100.00;99378.41;4866927;29;45636;-83
2023/12/09 10:08:55;;;;;;;;;0.00;0.00;;;;;12.77;100.00;99373.03;4883914;29;45570;-83
2023/12/09 10:11:21;;;;;;;;;0.00;0.00;;;;;12.71;100.00;99358.00;4868019;28;44940;-83
2023/12/09 10:13:46;;;;;;;;;0.00;0.00;;;;;12.79;100.00;99357.88;4866005;29;45527;-83
2023/12/09 10:16:12;;;;;;;;;0.00;0.00;;;;;12.73;100.00;99368.63;4884450;29;45423;-83
2023/12/09 10:18:43;;;;;;;;;0.00;0.00;;;;;12.94;100.00;99351.38;4882098;29;46124;-84
2023/12/09 10:21:09;;;;;;;;;0.00;0.00;;;;;12.74;100.00;99341.03;4880905;28;45493;-83
2023/12/09 10:23:35;;;;;;;;;1.00;1.00;;;;;12.95;100.00;99350.47;4881279;29;45263;-83
2023/12/09 10:26:01;;;;;;;;;1.00;1.00;;;;;12.95;100.00;99342.47;4866119;28;45636;-83
2023/12/09 10:28:27;;;;;;;;;0.00;0.00;;;;;12.97;100.00;99346.88;4866424;29;47471;-83
2023/12/09 10:30:52;;;;;;;;;0.00;0.00;;;;;13.14;100.00;99335.00;4869124;29;45503;-82
2023/12/09 10:33:17;;;;;;;;;0.00;0.00;;;;;13.25;100.00;99333.00;4887210;29;44808;-82
2023/12/09 10:35:44;;;;;;;;;0.00;0.00;;;;;13.33;100.00;99320.41;4869336;28;45433;-82
2023/12/09 10:38:09;;;;;;;;;0.00;0.00;;;;;13.22;100.00;99303.69;4869286;29;47131;-83
2023/12/09 10:40:35;;;;;;;;;0.00;0.00;;;;;13.32;100.00;99328.44;4886990;29;45333;-84
2023/12/09 10:43:03;;;;;;;;;0.00;0.00;;;;;13.32;100.00;99318.63;4886449;29;45464;-83
2023/12/09 10:45:28;;;;;;;;;2.67;1.00;;;;;13.30;100.00;99293.75;4871350;29;45447;-83
2023/12/09 10:47:53;;;;;;;;;0.00;0.00;;;;;13.33;100.00;99287.47;4870954;29;47070;-84
2023/12/09 10:50:19;;;;;;;;;0.00;0.00;;;;;13.30;100.00;99293.75;4887674;29;45543;-84
2023/12/09 10:52:44;;;;;;;;;2.00;1.00;;;;;13.28;100.00;99302.69;4886990;29;44896;-84
2023/12/09 10:55:10;;;;;;;;;1.00;0.00;;;;;13.36;100.00;99311.47;4887026;29;44934;-85
2023/12/09 10:57:36;;;;;;;;;0.00;0.00;;;;;13.43;100.00;99288.16;4870582;29;47229;-85
2023/12/09 11:00:09;;;;;;;;;0.25;0.25;;;;;13.39;100.00;99244.63;4888125;29;45494;-84
2023/12/09 11:02:35;;;;;;;;;0.00;0.00;;;;;13.44;100.00;99247.22;4889717;29;45579;-84
2023/12/09 11:05:01;;;;;;;;;0.00;0.00;;;;;13.49;100.00;99282.69;4870605;29;44895;-83
2023/12/09 11:07:28;;;;;;;;;0.00;0.00;;;;;13.49;100.00;99262.22;4887685;29;45514;-83
2023/12/09 11:09:54;;;;;;;;;0.00;0.00;;;;;13.54;100.00;99254.97;4871265;29;45943;-83
2023/12/09 11:12:27;;;;;;;;;1.33;0.00;;;;;13.71;100.00;99219.84;4871030;29;44928;-83
2023/12/09 11:14:52;;;;;;;;;0.00;0.00;;;;;13.55;100.00;99223.78;4872251;29;45701;-83
2023/12/09 11:17:37;;;;;;;;;0.00;0.00;;;;;13.89;100.00;99255.97;4888438;29;56206;-83
2023/12/09 11:20:10;;;;;;;;;0.67;0.00;;;;;13.87;100.00;99240.88;4871167;29;45070;-83
2023/12/09 11:22:38;;;;;;;;;0.00;0.00;;;;;13.70;100.00;99228.81;4871938;28;45440;-83
2023/12/09 11:25:04;;;;;;;;;0.00;0.00;;;;;13.78;100.00;99234.84;4872066;29;45329;-83